Time;durP1;ratioP1;P1;durP2;ratioP2;P2;SDS_P1;SDS_P2;PMS_P1;PMS_P2;Temp;Humidity;BMP_temperature;BMP_pressure;BME280_temperature;BME280_humidity;BME280_pressure;Samples;Min_cycle;Max_cycle;Signal;HPM_P1;HPM_P2
2023/04/16 00:01:46;;;;;;;;;;;8.80;99.90;;;;;;5056715;28;19972;-47
2023/04/16 00:04:13;;;;;;;;;;;8.80;99.90;;;;;;5057444;28;19934;-45
2023/04/16 00:06:40;;;;;;;;;;;8.80;99.90;;;;;;5051970;28;20022;-42
2023/04/16 00:09:06;;;;;;;;;;;8.80;99.90;;;;;;5050512;28;20452;-43
2023/04/16 00:11:33;;;;;;;;;;;8.80;99.90;;;;;;5053065;28;19995;-42
2023/04/16 00:14:01;;;;;;;;;;;8.80;99.90;;;;;;5053146;28;20025;-44
2023/04/16 00:16:27;;;;;;;;;;;8.80;99.90;;;;;;5067728;28;19953;-44
2023/04/16 00:18:54;;;;;;;;;;;8.80;99.90;;;;;;5049988;28;20487;-45
2023/04/16 00:21:21;;;;;;;;;;;8.80;99.90;;;;;;5052373;28;20356;-40
2023/04/16 00:23:47;;;;;;;;;;;8.80;99.90;;;;;;5053692;28;19975;-47
2023/04/16 00:26:14;;;;;;;;;;;8.80;99.90;;;;;;5037123;28;19979;-46
2023/04/16 00:28:41;;;;;;;;;;;8.90;99.90;;;;;;5055396;28;19941;-45
2023/04/16 00:31:09;;;;;;;;;;;8.80;99.90;;;;;;5058366;28;20031;-45
2023/04/16 00:33:36;;;;;;;;;;;8.80;99.90;;;;;;5048617;28;19977;-47
2023/04/16 00:36:02;;;;;;;;;;;8.80;99.90;;;;;;5057474;28;20012;-45
2023/04/16 00:38:31;;;;;;;;;;;8.90;99.90;;;;;;5053642;28;19972;-45
2023/04/16 00:40:58;;;;;;;;;;;8.90;99.90;;;;;;5052052;28;20424;-44
2023/04/16 00:43:25;;;;;;;;;;;8.90;99.90;;;;;;5052209;28;20024;-42
2023/04/16 00:45:52;;;;;;;;;;;8.90;99.90;;;;;;5048312;28;19940;-42
2023/04/16 00:48:20;;;;;;;;;;;8.80;99.90;;;;;;5056845;28;19925;-49
2023/04/16 00:50:46;;;;;;;;;;;8.90;99.90;;;;;;5051619;28;20073;-42
2023/04/16 00:53:13;;;;;;;;;;;8.90;99.90;;;;;;5047486;28;19935;-45
2023/04/16 00:55:40;;;;;;;;;;;8.80;99.90;;;;;;5051590;28;20034;-45
2023/04/16 00:58:06;;;;;;;;;;;8.80;99.90;;;;;;5050833;28;20445;-47
2023/04/16 01:00:33;;;;;;;;;;;8.80;99.90;;;;;;5053545;28;19979;-46
2023/04/16 01:03:00;;;;;;;;;;;8.80;99.90;;;;;;5049530;28;19941;-47
2023/04/16 01:05:28;;;;;;;;;;;8.80;99.90;;;;;;5034781;28;20024;-45
2023/04/16 01:07:56;;;;;;;;;;;8.80;99.90;;;;;;5054619;28;19987;-49
2023/04/16 01:10:22;;;;;;;;;;;8.80;99.90;;;;;;5052741;28;20202;-46
2023/04/16 01:12:49;;;;;;;;;;;8.80;99.90;;;;;;5054953;28;19939;-44
2023/04/16 01:15:16;;;;;;;;;;;8.80;99.90;;;;;;5056884;28;20446;-44
2023/04/16 01:17:43;;;;;;;;;;;8.80;99.90;;;;;;5053507;28;20385;-47
2023/04/16 01:20:10;;;;;;;;;;;8.80;99.90;;;;;;5052327;28;19945;-49
2023/04/16 01:22:38;;;;;;;;;;;8.80;99.90;;;;;;5057245;28;19985;-45
2023/04/16 01:25:05;;;;;;;;;;;8.80;99.90;;;;;;5064399;28;19995;-46
2023/04/16 01:27:32;;;;;;;;;;;8.80;99.90;;;;;;5051299;28;19974;-47
2023/04/16 01:29:58;;;;;;;;;;;8.80;99.90;;;;;;5067866;28;19943;-42
2023/04/16 01:32:25;;;;;;;;;;;8.80;99.90;;;;;;5055956;28;20288;-46
2023/04/16 01:34:52;;;;;;;;;;;8.80;99.90;;;;;;5047787;28;19937;-45
2023/04/16 01:37:18;;;;;;;;;;;8.80;99.90;;;;;;5056290;28;20047;-45
2023/04/16 01:39:46;;;;;;;;;;;8.80;99.90;;;;;;5060894;28;20394;-46
2023/04/16 01:42:13;;;;;;;;;;;8.80;99.90;;;;;;5052553;28;20399;-42
2023/04/16 01:44:39;;;;;;;;;;;8.80;99.90;;;;;;5052842;28;19990;-41
2023/04/16 01:47:06;;;;;;;;;;;8.80;99.90;;;;;;5071199;28;19934;-45
2023/04/16 01:49:33;;;;;;;;;;;8.80;99.90;;;;;;5045717;28;19942;-43
2023/04/16 01:52:00;;;;;;;;;;;8.80;99.90;;;;;;5054304;28;19933;-42
2023/04/16 01:54:26;;;;;;;;;;;8.80;99.90;;;;;;5070407;28;20297;-44
2023/04/16 01:56:54;;;;;;;;;;;8.80;99.90;;;;;;5031688;28;19951;-46
2023/04/16 01:59:21;;;;;;;;;;;8.80;99.90;;;;;;5052769;28;20384;-46
2023/04/16 02:01:47;;;;;;;;;;;8.80;99.90;;;;;;5052116;28;19999;-46
2023/04/16 02:04:14;;;;;;;;;;;8.80;99.90;;;;;;5051503;28;20326;-46
2023/04/16 02:06:41;;;;;;;;;;;8.80;99.90;;;;;;5050638;28;19997;-48
2023/04/16 02:09:07;;;;;;;;;;;8.80;99.90;;;;;;5032322;28;19937;-44
2023/04/16 02:11:34;;;;;;;;;;;8.80;99.90;;;;;;5038357;28;19944;-46
2023/04/16 02:14:02;;;;;;;;;;;8.80;99.90;;;;;;5042335;28;19983;-44
2023/04/16 02:16:29;;;;;;;;;;;8.80;99.90;;;;;;5051709;28;20048;-41
2023/04/16 02:18:55;;;;;;;;;;;8.80;99.90;;;;;;5050803;28;20003;-44
2023/04/16 02:21:22;;;;;;;;;;;8.70;99.90;;;;;;5052901;28;20021;-46
2023/04/16 02:23:50;;;;;;;;;;;8.70;99.90;;;;;;5050848;28;20012;-44
2023/04/16 02:26:17;;;;;;;;;;;8.70;99.90;;;;;;5050549;28;19935;-46
2023/04/16 02:28:43;;;;;;;;;;;8.70;99.90;;;;;;5050763;28;19985;-44
2023/04/16 02:31:12;;;;;;;;;;;8.70;99.90;;;;;;5051033;28;20377;-44
2023/04/16 02:33:38;;;;;;;;;;;8.70;99.90;;;;;;5051218;28;19937;-45
2023/04/16 02:36:05;;;;;;;;;;;8.70;99.90;;;;;;5050239;28;19982;-43
2023/04/16 02:38:32;;;;;;;;;;;8.70;99.90;;;;;;5051742;28;20394;-45
2023/04/16 02:40:58;;;;;;;;;;;8.60;99.90;;;;;;5051915;28;19980;-46
2023/04/16 02:43:25;;;;;;;;;;;8.60;99.90;;;;;;5050411;28;19984;-43
2023/04/16 02:45:52;;;;;;;;;;;8.60;99.90;;;;;;5051107;28;19921;-41
2023/04/16 02:48:20;;;;;;;;;;;8.60;99.90;;;;;;5050995;28;20395;-45
2023/04/16 02:50:46;;;;;;;;;;;8.60;99.90;;;;;;5051926;28;19977;-46
2023/04/16 02:53:13;;;;;;;;;;;8.60;99.90;;;;;;5050441;28;19983;-45
2023/04/16 02:55:39;;;;;;;;;;;8.60;99.90;;;;;;5051201;28;19933;-42
2023/04/16 02:58:06;;;;;;;;;;;8.60;99.90;;;;;;5051969;28;20000;-43
2023/04/16 03:00:33;;;;;;;;;;;8.50;99.90;;;;;;5051834;28;19972;-47
2023/04/16 03:02:59;;;;;;;;;;;8.50;99.90;;;;;;5050302;28;19993;-45
2023/04/16 03:05:27;;;;;;;;;;;8.50;99.90;;;;;;5041192;28;20020;-49
2023/04/16 03:07:55;;;;;;;;;;;8.50;99.90;;;;;;5035521;28;20357;-44
2023/04/16 03:10:22;;;;;;;;;;;8.50;99.90;;;;;;5050657;28;20029;-41
2023/04/16 03:12:48;;;;;;;;;;;8.40;99.90;;;;;;5049883;28;19942;-43
2023/04/16 03:15:15;;;;;;;;;;;8.40;99.90;;;;;;5051089;28;19992;-47
2023/04/16 03:17:42;;;;;;;;;;;8.40;99.90;;;;;;5050761;28;20055;-43
2023/04/16 03:20:09;;;;;;;;;;;8.40;99.90;;;;;;5050971;28;19932;-44
2023/04/16 03:22:37;;;;;;;;;;;8.40;99.90;;;;;;5046159;28;20644;-44
2023/04/16 03:25:04;;;;;;;;;;;8.40;99.90;;;;;;5052570;28;19962;-44
2023/04/16 03:27:30;;;;;;;;;;;8.40;99.90;;;;;;5051436;28;20029;-47
2023/04/16 03:29:57;;;;;;;;;;;8.40;99.90;;;;;;5049873;28;20380;-46
2023/04/16 03:32:24;;;;;;;;;;;8.40;99.90;;;;;;5054064;28;20021;-45
2023/04/16 03:34:50;;;;;;;;;;;8.40;99.90;;;;;;5053411;28;19937;-45
2023/04/16 03:37:17;;;;;;;;;;;8.40;99.90;;;;;;5047185;28;19953;-44
2023/04/16 03:39:45;;;;;;;;;;;8.40;99.90;;;;;;5054356;28;20411;-43
2023/04/16 03:42:11;;;;;;;;;;;8.40;99.90;;;;;;5052595;28;20017;-47
2023/04/16 03:44:38;;;;;;;;;;;8.40;99.90;;;;;;5042595;28;20032;-44
2023/04/16 03:47:05;;;;;;;;;;;8.40;99.90;;;;;;5056593;28;20007;-42
2023/04/16 03:49:31;;;;;;;;;;;8.40;99.90;;;;;;5053113;28;20062;-44
2023/04/16 03:51:58;;;;;;;;;;;8.40;99.90;;;;;;5053985;28;20005;-43
2023/04/16 03:54:24;;;;;;;;;;;8.40;99.90;;;;;;5054057;28;19974;-44
2023/04/16 03:56:52;;;;;;;;;;;8.40;99.90;;;;;;5053385;28;20008;-45
2023/04/16 03:59:19;;;;;;;;;;;8.40;99.90;;;;;;5054041;28;20010;-45
2023/04/16 04:01:46;;;;;;;;;;;8.40;99.90;;;;;;5054907;28;20033;-47
2023/04/16 04:04:12;;;;;;;;;;;8.40;99.90;;;;;;5053552;28;19937;-46
2023/04/16 04:06:39;;;;;;;;;;;8.40;99.90;;;;;;5051051;28;20358;-44
2023/04/16 04:09:06;;;;;;;;;;;8.40;99.90;;;;;;5034587;28;19937;-45
2023/04/16 04:11:33;;;;;;;;;;;8.40;99.90;;;;;;5053845;28;20443;-42
2023/04/16 04:14:01;;;;;;;;;;;8.40;99.90;;;;;;5048871;28;20357;-45
2023/04/16 04:16:27;;;;;;;;;;;8.40;99.90;;;;;;5044292;28;19953;-45
2023/04/16 04:18:54;;;;;;;;;;;8.30;99.90;;;;;;5054105;28;20006;-46
2023/04/16 04:21:21;;;;;;;;;;;8.40;99.90;;;;;;5053843;28;19942;-41
2023/04/16 04:23:47;;;;;;;;;;;8.40;99.90;;;;;;5053086;28;19937;-46
2023/04/16 04:26:14;;;;;;;;;;;8.40;99.90;;;;;;5053522;28;19985;-48
2023/04/16 04:28:40;;;;;;;;;;;8.40;99.90;;;;;;5052887;28;20399;-45
2023/04/16 04:31:08;;;;;;;;;;;8.30;99.90;;;;;;5052394;28;20375;-46
2023/04/16 04:33:35;;;;;;;;;;;8.40;99.90;;;;;;5040982;28;19957;-47
2023/04/16 04:36:02;;;;;;;;;;;8.40;99.90;;;;;;5051567;28;20047;-44
2023/04/16 04:38:29;;;;;;;;;;;8.40;99.90;;;;;;5052091;28;20023;-45
2023/04/16 04:40:55;;;;;;;;;;;8.40;99.90;;;;;;5040515;28;19937;-45
2023/04/16 04:43:22;;;;;;;;;;;8.40;99.90;;;;;;5063192;28;19935;-46
2023/04/16 04:45:49;;;;;;;;;;;8.40;99.90;;;;;;5052113;28;19984;-44
2023/04/16 04:48:17;;;;;;;;;;;8.40;99.90;;;;;;5036314;28;19937;-45
2023/04/16 04:50:44;;;;;;;;;;;8.40;99.90;;;;;;5066874;28;19976;-47
2023/04/16 04:53:10;;;;;;;;;;;8.40;99.90;;;;;;5052973;28;19937;-45
2023/04/16 04:55:37;;;;;;;;;;;8.30;99.90;;;;;;5049528;28;19941;-46
2023/04/16 04:58:04;;;;;;;;;;;8.40;99.90;;;;;;5033521;28;19951;-43
2023/04/16 05:00:31;;;;;;;;;;;8.40;99.90;;;;;;5048599;28;19972;-48
2023/04/16 05:02:57;;;;;;;;;;;8.40;99.90;;;;;;5039931;28;19979;-44
2023/04/16 05:05:25;;;;;;;;;;;8.40;99.90;;;;;;5068126;28;19942;-45
2023/04/16 05:07:52;;;;;;;;;;;8.40;99.90;;;;;;5045868;28;20431;-45
2023/04/16 05:10:19;;;;;;;;;;;8.40;99.90;;;;;;5065329;28;19990;-47
2023/04/16 05:12:46;;;;;;;;;;;8.40;99.90;;;;;;5053022;28;19942;-48
2023/04/16 05:15:12;;;;;;;;;;;8.40;99.90;;;;;;5053574;28;19985;-48
2023/04/16 05:17:39;;;;;;;;;;;8.40;99.90;;;;;;5048296;28;20449;-42
2023/04/16 05:20:06;;;;;;;;;;;8.40;99.90;;;;;;5051676;28;19938;-44
2023/04/16 05:22:34;;;;;;;;;;;8.40;99.90;;;;;;5047684;28;19933;-42
2023/04/16 05:25:01;;;;;;;;;;;8.40;99.90;;;;;;5052923;28;20389;-43
2023/04/16 05:27:27;;;;;;;;;;;8.40;99.90;;;;;;5052511;28;19986;-46
2023/04/16 05:29:54;;;;;;;;;;;8.40;99.90;;;;;;5048782;28;19982;-43
2023/04/16 05:32:21;;;;;;;;;;;8.40;99.90;;;;;;5044032;28;19946;-42
2023/04/16 05:34:47;;;;;;;;;;;8.50;99.90;;;;;;5049876;28;20344;-43
2023/04/16 05:37:14;;;;;;;;;;;8.50;99.90;;;;;;5049161;28;20045;-41
2023/04/16 05:39:42;;;;;;;;;;;8.50;99.90;;;;;;5050576;28;19990;-43
2023/04/16 05:42:09;;;;;;;;;;;8.60;99.90;;;;;;5051828;28;19976;-43
2023/04/16 05:44:35;;;;;;;;;;;8.60;99.90;;;;;;5051840;28;19995;-42
2023/04/16 05:47:02;;;;;;;;;;;8.60;99.90;;;;;;5050802;28;20422;-41
2023/04/16 05:49:28;;;;;;;;;;;8.70;99.90;;;;;;5051327;28;19991;-43
2023/04/16 05:51:55;;;;;;;;;;;8.70;99.90;;;;;;5037015;28;19939;-43
2023/04/16 05:54:22;;;;;;;;;;;8.70;99.90;;;;;;5054413;28;20410;-47
2023/04/16 05:56:50;;;;;;;;;;;8.70;99.90;;;;;;5051326;28;20431;-48
2023/04/16 05:59:16;;;;;;;;;;;8.70;99.90;;;;;;5051307;28;20080;-42
2023/04/16 06:01:43;;;;;;;;;;;8.70;99.90;;;;;;5037352;28;19992;-43
2023/04/16 06:04:09;;;;;;;;;;;8.70;99.90;;;;;;5048277;28;19991;-47
2023/04/16 06:06:36;;;;;;;;;;;8.80;99.90;;;;;;5032938;28;19945;-46
2023/04/16 06:09:03;;;;;;;;;;;8.80;99.90;;;;;;5039391;28;19954;-45
2023/04/16 06:11:29;;;;;;;;;;;8.70;99.90;;;;;;5045214;28;20015;-45
2023/04/16 06:13:57;;;;;;;;;;;8.80;99.90;;;;;;5052850;28;19977;-44
2023/04/16 06:16:24;;;;;;;;;;;8.70;99.90;;;;;;5050765;28;19962;-47
2023/04/16 06:18:51;;;;;;;;;;;8.80;99.90;;;;;;5032334;28;20461;-47
2023/04/16 06:21:18;;;;;;;;;;;8.90;99.90;;;;;;5046797;28;19944;-47
2023/04/16 06:23:44;;;;;;;;;;;8.80;99.90;;;;;;5049972;28;20471;-48
2023/04/16 06:26:11;;;;;;;;;;;8.80;99.90;;;;;;5052223;28;19941;-46
2023/04/16 06:28:37;;;;;;;;;;;8.90;99.90;;;;;;5050505;28;20006;-48
2023/04/16 06:31:05;;;;;;;;;;;8.90;99.90;;;;;;5066829;28;20388;-46
2023/04/16 06:33:32;;;;;;;;;;;8.90;99.90;;;;;;5048246;28;19936;-46
2023/04/16 06:35:59;;;;;;;;;;;8.90;99.90;;;;;;5038373;28;19933;-43
2023/04/16 06:38:25;;;;;;;;;;;8.80;99.90;;;;;;5042297;28;19996;-48
2023/04/16 06:40:52;;;;;;;;;;;8.80;99.90;;;;;;5051958;28;20334;-46
2023/04/16 06:43:19;;;;;;;;;;;8.80;99.90;;;;;;5051884;28;19983;-45
2023/04/16 06:45:45;;;;;;;;;;;8.80;99.90;;;;;;5043773;28;20033;-44
2023/04/16 06:48:13;;;;;;;;;;;8.80;99.90;;;;;;5043216;28;20397;-47
2023/04/16 06:50:41;;;;;;;;;;;8.80;99.90;;;;;;5047954;28;20374;-42
2023/04/16 06:53:07;;;;;;;;;;;8.90;99.90;;;;;;5051684;28;20387;-44
2023/04/16 06:55:34;;;;;;;;;;;8.90;99.90;;;;;;5051960;28;20014;-45
2023/04/16 06:58:01;;;;;;;;;;;8.90;99.90;;;;;;5037654;28;20046;-46
2023/04/16 07:00:27;;;;;;;;;;;9.00;99.90;;;;;;5070023;28;20476;-47
2023/04/16 07:02:54;;;;;;;;;;;9.00;99.90;;;;;;5055187;28;20341;-44
2023/04/16 07:05:22;;;;;;;;;;;9.00;99.90;;;;;;5055070;28;19946;-47
2023/04/16 07:07:48;;;;;;;;;;;9.00;99.90;;;;;;5049919;28;20029;-44
2023/04/16 07:10:15;;;;;;;;;;;9.10;99.90;;;;;;5052745;28;19975;-45
2023/04/16 07:12:42;;;;;;;;;;;9.10;99.90;;;;;;5054725;28;19924;-48
2023/04/16 07:15:09;;;;;;;;;;;9.20;99.90;;;;;;5054826;28;19938;-45
2023/04/16 07:17:36;;;;;;;;;;;9.20;99.90;;;;;;5054997;28;20019;-46
2023/04/16 07:20:02;;;;;;;;;;;9.30;99.90;;;;;;5054496;28;20020;-46
2023/04/16 07:22:30;;;;;;;;;;;9.30;99.90;;;;;;5053032;28;19934;-43
2023/04/16 07:24:57;;;;;;;;;;;9.40;99.90;;;;;;5055047;28;19937;-42
2023/04/16 07:27:23;;;;;;;;;;;9.40;99.90;;;;;;5052710;28;19962;-45
2023/04/16 07:29:50;;;;;;;;;;;9.50;99.90;;;;;;5050892;28;20379;-47
2023/04/16 07:32:17;;;;;;;;;;;9.60;99.90;;;;;;5054198;28;20029;-43
2023/04/16 07:34:43;;;;;;;;;;;9.70;99.90;;;;;;5054244;28;20353;-46
2023/04/16 07:37:10;;;;;;;;;;;9.70;99.90;;;;;;5058386;28;20336;-43
2023/04/16 07:39:38;;;;;;;;;;;9.70;99.90;;;;;;5056584;28;19996;-44
2023/04/16 07:42:05;;;;;;;;;;;9.70;99.90;;;;;;5053368;28;19938;-44
2023/04/16 07:44:32;;;;;;;;;;;9.70;99.90;;;;;;5053869;28;20355;-46
2023/04/16 07:46:59;;;;;;;;;;;9.60;99.90;;;;;;5049316;28;19972;-47
2023/04/16 07:49:25;;;;;;;;;;;9.60;99.90;;;;;;5048896;28;20406;-46
2023/04/16 07:51:52;;;;;;;;;;;9.60;99.90;;;;;;5049025;28;19964;-41
2023/04/16 07:54:18;;;;;;;;;;;9.70;99.90;;;;;;5050207;28;19981;-42
2023/04/16 07:56:46;;;;;;;;;;;9.70;99.90;;;;;;5051170;28;19937;-45
2023/04/16 07:59:13;;;;;;;;;;;9.70;99.90;;;;;;5052857;28;20003;-42
2023/04/16 08:01:40;;;;;;;;;;;9.80;99.90;;;;;;5053583;28;19981;-41
2023/04/16 08:04:06;;;;;;;;;;;9.90;99.90;;;;;;5043604;28;20351;-43
2023/04/16 08:06:33;;;;;;;;;;;9.90;99.90;;;;;;5045788;28;19963;-44
2023/04/16 08:09:00;;;;;;;;;;;10.00;99.90;;;;;;5047084;28;19934;-45
2023/04/16 08:11:26;;;;;;;;;;;10.00;99.90;;;;;;5053268;28;19987;-43
2023/04/16 08:13:54;;;;;;;;;;;10.10;99.90;;;;;;5062709;28;19938;-45
2023/04/16 08:16:21;;;;;;;;;;;10.10;99.90;;;;;;5052308;28;20397;-44
2023/04/16 08:18:48;;;;;;;;;;;10.20;99.90;;;;;;5048968;28;20373;-45
2023/04/16 08:21:14;;;;;;;;;;;10.30;99.90;;;;;;5052868;28;19933;-45
2023/04/16 08:23:41;;;;;;;;;;;10.30;99.90;;;;;;5053441;28;20448;-43
2023/04/16 08:26:07;;;;;;;;;;;10.40;99.90;;;;;;5052600;28;19932;-47
2023/04/16 08:28:34;;;;;;;;;;;10.50;99.90;;;;;;5049892;28;19984;-42
2023/04/16 08:31:02;;;;;;;;;;;10.50;99.90;;;;;;5049304;28;19939;-43
2023/04/16 08:33:29;;;;;;;;;;;10.60;99.90;;;;;;5050811;28;19983;-43
2023/04/16 08:35:55;;;;;;;;;;;10.60;99.90;;;;;;5052231;28;19998;-44
2023/04/16 08:38:22;;;;;;;;;;;10.70;99.90;;;;;;5052988;28;19962;-43
2023/04/16 08:40:49;;;;;;;;;;;10.80;99.90;;;;;;5051050;28;19981;-42
2023/04/16 08:43:16;;;;;;;;;;;10.80;99.90;;;;;;5053915;28;19933;-47
2023/04/16 08:45:42;;;;;;;;;;;10.90;99.90;;;;;;5053252;28;19941;-44
2023/04/16 08:48:10;;;;;;;;;;;11.00;99.90;;;;;;5045158;28;19935;-43
2023/04/16 08:50:37;;;;;;;;;;;11.10;99.90;;;;;;5044686;28;20359;-43
2023/04/16 08:53:04;;;;;;;;;;;11.20;99.90;;;;;;5050434;28;20009;-45
2023/04/16 08:55:32;;;;;;;;;;;11.30;99.90;;;;;;5053038;28;19993;-43
2023/04/16 08:57:58;;;;;;;;;;;11.30;99.90;;;;;;5045254;28;19961;-42
2023/04/16 09:00:25;;;;;;;;;;;11.30;99.90;;;;;;5049456;28;19980;-42
2023/04/16 09:02:52;;;;;;;;;;;11.40;99.90;;;;;;5067611;28;19943;-41
2023/04/16 09:05:22;;;;;;;;;;;11.50;99.90;;;;;;5053599;28;19970;-42
2023/04/16 09:07:48;;;;;;;;;;;11.60;99.90;;;;;;5063357;28;19945;-44
2023/04/16 09:10:15;;;;;;;;;;;11.60;99.90;;;;;;5053276;28;19969;-41
2023/04/16 09:12:42;;;;;;;;;;;11.50;99.90;;;;;;5048987;28;19980;-42
2023/04/16 09:15:10;;;;;;;;;;;11.60;99.90;;;;;;5051396;28;19945;-43
2023/04/16 09:17:36;;;;;;;;;;;11.60;99.90;;;;;;5048542;28;20004;-42
2023/04/16 09:20:04;;;;;;;;;;;11.70;99.90;;;;;;5044832;28;19978;-44
2023/04/16 09:22:32;;;;;;;;;;;11.70;99.90;;;;;;5071698;28;20462;-44
2023/04/16 09:24:59;;;;;;;;;;;11.80;99.90;;;;;;5048164;28;19960;-44
2023/04/16 09:27:27;;;;;;;;;;;11.90;99.90;;;;;;5050681;28;20036;-42
2023/04/16 09:29:53;;;;;;;;;;;12.30;99.90;;;;;;5052846;28;19935;-45
2023/04/16 09:32:24;;;;;;;;;;;12.50;99.90;;;;;;5045946;28;20003;-46
2023/04/16 09:34:54;;;;;;;;;;;12.60;99.90;;;;;;5037575;28;20034;-43
2023/04/16 09:37:21;;;;;;;;;;;12.70;99.90;;;;;;5050256;28;19949;-47
2023/04/16 09:39:53;;;;;;;;;;;12.80;99.90;;;;;;5047070;28;20594;-44
2023/04/16 09:42:21;;;;;;;;;;;12.90;99.90;;;;;;5049314;28;20322;-44
2023/04/16 09:44:49;;;;;;;;;;;13.00;99.90;;;;;;5048577;28;20013;-43
2023/04/16 09:47:15;;;;;;;;;;;13.00;99.90;;;;;;5036455;28;20280;-42
2023/04/16 09:49:42;;;;;;;;;;;13.10;99.90;;;;;;5048837;28;19944;-45
2023/04/16 09:52:09;;;;;;;;;;;13.20;99.90;;;;;;5062274;28;19937;-43
2023/04/16 09:54:35;;;;;;;;;;;13.20;99.90;;;;;;5055375;28;20387;-41
2023/04/16 09:57:04;;;;;;;;;;;13.30;99.90;;;;;;5040308;28;19933;-43
2023/04/16 09:59:32;;;;;;;;;;;13.40;99.90;;;;;;5040373;28;20003;-43
2023/04/16 10:02:00;;;;;;;;;;;13.40;99.90;;;;;;5063407;28;19935;-43
2023/04/16 10:04:26;;;;;;;;;;;13.50;99.90;;;;;;5046556;28;19947;-43
2023/04/16 10:07:02;;;;;;;;;;;13.60;99.90;;;;;;5043042;28;19997;-42
2023/04/16 10:09:31;;;;;;;;;;;13.80;99.90;;;;;;5049392;28;19998;-41
2023/04/16 10:11:58;;;;;;;;;;;14.10;99.90;;;;;;5040924;28;20351;-44
2023/04/16 10:14:26;;;;;;;;;;;14.40;99.90;;;;;;5048954;28;19983;-44
2023/04/16 10:16:52;;;;;;;;;;;14.70;99.90;;;;;;5048679;28;19960;-44
2023/04/16 10:19:19;;;;;;;;;;;14.90;99.90;;;;;;5049388;28;19961;-43
2023/04/16 10:21:45;;;;;;;;;;;15.00;99.90;;;;;;5053416;28;19936;-43
2023/04/16 10:24:15;;;;;;;;;;;15.10;99.90;;;;;;5056114;28;20301;-43
2023/04/16 10:26:42;;;;;;;;;;;15.20;99.90;;;;;;5055079;28;20400;-42
2023/04/16 10:29:08;;;;;;;;;;;15.20;99.90;;;;;;5039781;28;19975;-43
2023/04/16 10:31:37;;;;;;;;;;;15.30;99.90;;;;;;5059827;28;20035;-40
2023/04/16 10:34:03;;;;;;;;;;;15.30;99.90;;;;;;5045795;28;19946;-41
2023/04/16 10:36:30;;;;;;;;;;;15.40;99.90;;;;;;5051590;28;20024;-42
2023/04/16 10:38:57;;;;;;;;;;;15.50;99.90;;;;;;5045949;28;19986;-42
2023/04/16 10:41:24;;;;;;;;;;;15.70;99.90;;;;;;5050961;28;20004;-41
2023/04/16 10:43:50;;;;;;;;;;;15.80;99.90;;;;;;5050530;28;19937;-41
2023/04/16 10:46:17;;;;;;;;;;;16.00;99.90;;;;;;5050460;28;20376;-41
2023/04/16 10:48:45;;;;;;;;;;;16.00;99.90;;;;;;5047619;28;19935;-41
2023/04/16 10:51:22;;;;;;;;;;;16.00;99.90;;;;;;5033043;28;20236;-41
2023/04/16 10:53:49;;;;;;;;;;;16.10;99.90;;;;;;5033667;28;19944;-40
2023/04/16 10:56:17;;;;;;;;;;;16.10;99.90;;;;;;5060278;28;20029;-41
2023/04/16 10:58:44;;;;;;;;;;;16.30;99.90;;;;;;5056750;28;19987;-42
2023/04/16 11:01:11;;;;;;;;;;;16.40;99.90;;;;;;5049573;28;20028;-41
2023/04/16 11:03:41;;;;;;;;;;;16.50;99.90;;;;;;5053630;28;19933;-42
2023/04/16 11:06:15;;;;;;;;;;;16.40;99.90;;;;;;5043154;28;20089;-42
2023/04/16 11:08:42;;;;;;;;;;;16.40;99.90;;;;;;5043534;28;20322;-42
2023/04/16 11:11:09;;;;;;;;;;;16.40;99.90;;;;;;5046137;28;19934;-42
2023/04/16 11:13:36;;;;;;;;;;;16.50;99.90;;;;;;5048976;28;19935;-43
2023/04/16 11:16:03;;;;;;;;;;;16.50;99.90;;;;;;5046627;28;19988;-40
2023/04/16 11:18:29;;;;;;;;;;;16.40;99.90;;;;;;5064489;28;20079;-41
2023/04/16 11:20:56;;;;;;;;;;;16.40;99.90;;;;;;5050073;28;20007;-41
2023/04/16 11:23:24;;;;;;;;;;;16.40;99.90;;;;;;5059962;28;19983;-42
2023/04/16 11:25:55;;;;;;;;;;;16.30;99.90;;;;;;5044806;28;19931;-40
2023/04/16 11:28:31;;;;;;;;;;;16.20;99.90;;;;;;5043787;28;20425;-40
2023/04/16 11:30:58;;;;;;;;;;;16.10;99.90;;;;;;5047791;28;19979;-41
2023/04/16 11:33:25;;;;;;;;;;;16.10;99.90;;;;;;5041208;28;19941;-40
2023/04/16 11:35:56;;;;;;;;;;;16.00;99.90;;;;;;5047994;28;20655;-40
2023/04/16 11:38:33;;;;;;;;;;;16.00;99.90;;;;;;5034530;28;19976;-42
2023/04/16 11:41:00;;;;;;;;;;;16.10;99.90;;;;;;5048986;28;19936;-42
2023/04/16 11:43:27;;;;;;;;;;;16.00;99.90;;;;;;5052422;28;20001;-41
2023/04/16 11:45:57;;;;;;;;;;;16.00;99.90;;;;;;5038919;28;21127;-40
2023/04/16 11:48:23;;;;;;;;;;;16.00;99.90;;;;;;5055380;28;19994;-41
2023/04/16 11:50:55;;;;;;;;;;;16.10;99.90;;;;;;5061595;28;19933;-41
2023/04/16 11:53:22;;;;;;;;;;;16.10;99.90;;;;;;5058343;28;19993;-42
2023/04/16 11:55:50;;;;;;;;;;;16.20;99.90;;;;;;5054918;28;19982;-41
2023/04/16 11:58:17;;;;;;;;;;;16.20;99.90;;;;;;5047332;28;20023;-40
2023/04/16 12:00:44;;;;;;;;;;;16.10;99.90;;;;;;5065825;28;19964;-40
2023/04/16 12:03:11;;;;;;;;;;;16.10;99.90;;;;;;5059126;28;19935;-42
2023/04/16 12:05:38;;;;;;;;;;;16.10;99.90;;;;;;5048563;28;19988;-42
2023/04/16 12:08:05;;;;;;;;;;;16.20;99.90;;;;;;5057688;28;20398;-41
2023/04/16 12:10:33;;;;;;;;;;;16.30;99.90;;;;;;5042479;28;19994;-40
2023/04/16 12:13:11;;;;;;;;;;;16.30;99.90;;;;;;5058074;28;19935;-40
2023/04/16 12:15:45;;;;;;;;;;;16.40;99.90;;;;;;5054967;28;19937;-41
2023/04/16 12:18:12;;;;;;;;;;;16.40;99.90;;;;;;5055210;28;19954;-39
2023/04/16 12:20:40;;;;;;;;;;;16.30;99.90;;;;;;5050054;28;20039;-41
2023/04/16 12:23:07;;;;;;;;;;;16.20;99.90;;;;;;5047560;28;20659;-40
2023/04/16 12:25:33;;;;;;;;;;;16.10;99.90;;;;;;5052661;28;19967;-41
2023/04/16 12:28:01;;;;;;;;;;;16.10;99.90;;;;;;5053341;28;19937;-42
2023/04/16 12:30:29;;;;;;;;;;;16.30;99.90;;;;;;5059909;28;19936;-41
2023/04/16 12:33:11;;;;;;;;;;;16.50;99.90;;;;;;5049178;28;20442;-40
2023/04/16 12:35:38;;;;;;;;;;;16.50;99.90;;;;;;5047977;28;20020;-40
2023/04/16 12:38:04;;;;;;;;;;;16.60;99.90;;;;;;5044256;28;19977;-42
2023/04/16 12:40:31;;;;;;;;;;;16.60;99.90;;;;;;5050490;28;19965;-40
2023/04/16 12:42:58;;;;;;;;;;;16.70;99.90;;;;;;5049675;28;20019;-40
2023/04/16 12:45:24;;;;;;;;;;;16.80;99.90;;;;;;5051025;28;20025;-41
2023/04/16 12:47:52;;;;;;;;;;;16.90;99.90;;;;;;5052897;28;19953;-40
2023/04/16 12:50:19;;;;;;;;;;;17.20;99.90;;;;;;5060800;28;19938;-40
2023/04/16 12:52:45;;;;;;;;;;;17.10;99.90;;;;;;5066025;28;19981;-40
2023/04/16 12:55:12;;;;;;;;;;;17.00;99.90;;;;;;5049046;28;19936;-41
2023/04/16 12:57:39;;;;;;;;;;;17.00;99.90;;;;;;5052023;28;20303;-41
2023/04/16 13:00:06;;;;;;;;;;;17.00;99.90;;;;;;5052268;28;20288;-41
2023/04/16 13:02:33;;;;;;;;;;;17.10;99.90;;;;;;5053466;28;20030;-42
2023/04/16 13:05:01;;;;;;;;;;;17.10;99.90;;;;;;5054023;28;19938;-40
2023/04/16 13:07:30;;;;;;;;;;;17.00;99.90;;;;;;5051810;28;20029;-40
2023/04/16 13:09:57;;;;;;;;;;;16.90;99.90;;;;;;5052781;28;20307;-40
2023/04/16 13:12:23;;;;;;;;;;;16.90;99.90;;;;;;5050279;28;19979;-40
2023/04/16 13:14:50;;;;;;;;;;;16.90;99.90;;;;;;5052074;28;19941;-41
2023/04/16 13:17:17;;;;;;;;;;;16.80;99.90;;;;;;5049112;28;20367;-40
2023/04/16 13:19:44;;;;;;;;;;;16.80;99.90;;;;;;5046176;28;20007;-39
2023/04/16 13:22:12;;;;;;;;;;;16.90;99.90;;;;;;5052811;28;19933;-40
2023/04/16 13:24:39;;;;;;;;;;;17.10;99.90;;;;;;5052940;28;20050;-41
2023/04/16 13:27:07;;;;;;;;;;;17.30;99.90;;;;;;5048262;28;20320;-40
2023/04/16 13:29:35;;;;;;;;;;;17.50;99.90;;;;;;5054540;28;19933;-41
2023/04/16 13:32:02;;;;;;;;;;;17.50;99.90;;;;;;5052121;28;19941;-40
2023/04/16 13:34:28;;;;;;;;;;;17.40;99.90;;;;;;5052928;28;20026;-40
2023/04/16 13:36:55;;;;;;;;;;;17.30;99.90;;;;;;5042590;28;19999;-40
2023/04/16 13:39:23;;;;;;;;;;;17.40;99.90;;;;;;5041625;28;20349;-39
2023/04/16 13:41:50;;;;;;;;;;;17.50;99.90;;;;;;5049568;28;19989;-40
2023/04/16 13:44:16;;;;;;;;;;;17.60;99.90;;;;;;5049568;28;19941;-38
2023/04/16 13:46:46;;;;;;;;;;;17.50;99.90;;;;;;5047796;28;19981;-39
2023/04/16 13:49:13;;;;;;;;;;;17.60;99.90;;;;;;5050570;28;20597;-42
2023/04/16 13:51:39;;;;;;;;;;;17.70;99.90;;;;;;5051574;28;19966;-43
2023/04/16 13:54:06;;;;;;;;;;;17.70;99.90;;;;;;5051726;28;20033;-39
2023/04/16 13:56:34;;;;;;;;;;;17.50;99.90;;;;;;5059081;28;20039;-41
2023/04/16 13:59:01;;;;;;;;;;;17.30;99.90;;;;;;5054733;28;19934;-40
2023/04/16 14:01:27;;;;;;;;;;;17.20;99.90;;;;;;5048307;28;20015;-40
2023/04/16 14:03:54;;;;;;;;;;;17.00;99.90;;;;;;5047338;28;19968;-39
2023/04/16 14:06:21;;;;;;;;;;;16.80;99.90;;;;;;5047184;28;19974;-39
2023/04/16 14:08:47;;;;;;;;;;;16.70;99.90;;;;;;5040836;28;19987;-41
2023/04/16 14:11:14;;;;;;;;;;;16.50;99.90;;;;;;5053436;28;20019;-40
2023/04/16 14:13:42;;;;;;;;;;;16.40;99.90;;;;;;5053357;28;19981;-41
2023/04/16 14:16:09;;;;;;;;;;;16.40;99.90;;;;;;5050946;28;19945;-41
2023/04/16 14:18:39;;;;;;;;;;;16.20;99.90;;;;;;5051336;28;20049;-41
2023/04/16 14:21:06;;;;;;;;;;;16.20;99.90;;;;;;5050236;28;20015;-40
2023/04/16 14:23:33;;;;;;;;;;;16.00;99.90;;;;;;5051832;28;20290;-39